sensor_id;sensor_type;location;lat;lon;timestamp;P1;durP1;ratioP1;P2;durP2;ratioP2
22144;SDS011;11238;48.730;11.566;2024-03-08T00:02:03;28.52;;;12.43;;
22144;SDS011;11238;48.730;11.566;2024-03-08T00:04:29;26.00;;;12.07;;
22144;SDS011;11238;48.730;11.566;2024-03-08T00:06:55;27.25;;;13.20;;
22144;SDS011;11238;48.730;11.566;2024-03-08T00:09:21;23.85;;;11.77;;
22144;SDS011;11238;48.730;11.566;2024-03-08T00:11:47;23.52;;;12.10;;
22144;SDS011;11238;48.730;11.566;2024-03-08T00:14:15;25.70;;;12.48;;
22144;SDS011;11238;48.730;11.566;2024-03-08T00:16:41;26.02;;;13.05;;
22144;SDS011;11238;48.730;11.566;2024-03-08T00:19:08;25.65;;;12.80;;
22144;SDS011;11238;48.730;11.566;2024-03-08T00:21:35;24.70;;;12.07;;
22144;SDS011;11238;48.730;11.566;2024-03-08T00:24:01;24.20;;;12.75;;
22144;SDS011;11238;48.730;11.566;2024-03-08T00:26:27;28.55;;;12.70;;
22144;SDS011;11238;48.730;11.566;2024-03-08T00:28:53;27.05;;;12.80;;
22144;SDS011;11238;48.730;11.566;2024-03-08T00:31:19;24.42;;;12.05;;
22144;SDS011;11238;48.730;11.566;2024-03-08T00:33:45;26.10;;;12.95;;
22144;SDS011;11238;48.730;11.566;2024-03-08T00:36:11;29.15;;;12.68;;
22144;SDS011;11238;48.730;11.566;2024-03-08T00:38:37;25.95;;;12.18;;
22144;SDS011;11238;48.730;11.566;2024-03-08T00:41:03;25.83;;;13.15;;
22144;SDS011;11238;48.730;11.566;2024-03-08T00:43:29;29.23;;;12.00;;
22144;SDS011;11238;48.730;11.566;2024-03-08T00:45:57;22.35;;;11.85;;
22144;SDS011;11238;48.730;11.566;2024-03-08T00:48:23;24.98;;;12.32;;
22144;SDS011;11238;48.730;11.566;2024-03-08T00:50:49;29.92;;;12.30;;
22144;SDS011;11238;48.730;11.566;2024-03-08T00:53:15;27.45;;;12.18;;
22144;SDS011;11238;48.730;11.566;2024-03-08T00:55:42;30.00;;;12.77;;
22144;SDS011;11238;48.730;11.566;2024-03-08T00:58:08;28.25;;;13.02;;
22144;SDS011;11238;48.730;11.566;2024-03-08T01:00:34;21.80;;;12.00;;
22144;SDS011;11238;48.730;11.566;2024-03-08T01:03:00;23.67;;;11.70;;
22144;SDS011;11238;48.730;11.566;2024-03-08T01:05:26;27.25;;;11.27;;
22144;SDS011;11238;48.730;11.566;2024-03-08T01:07:52;28.65;;;11.38;;
22144;SDS011;11238;48.730;11.566;2024-03-08T01:10:17;24.90;;;11.82;;
22144;SDS011;11238;48.730;11.566;2024-03-08T01:12:43;22.98;;;11.90;;
22144;SDS011;11238;48.730;11.566;2024-03-08T01:15:10;25.80;;;11.82;;
22144;SDS011;11238;48.730;11.566;2024-03-08T01:17:36;24.67;;;11.93;;
22144;SDS011;11238;48.730;11.566;2024-03-08T01:20:03;22.60;;;11.65;;
22144;SDS011;11238;48.730;11.566;2024-03-08T01:22:30;24.60;;;12.43;;
22144;SDS011;11238;48.730;11.566;2024-03-08T01:24:56;24.80;;;11.35;;
22144;SDS011;11238;48.730;11.566;2024-03-08T01:27:22;25.38;;;12.43;;
22144;SDS011;11238;48.730;11.566;2024-03-08T01:29:50;23.45;;;11.77;;
22144;SDS011;11238;48.730;11.566;2024-03-08T01:32:16;27.00;;;11.45;;
22144;SDS011;11238;48.730;11.566;2024-03-08T01:34:43;31.58;;;12.75;;
22144;SDS011;11238;48.730;11.566;2024-03-08T01:37:10;30.90;;;13.20;;
22144;SDS011;11238;48.730;11.566;2024-03-08T01:39:36;23.23;;;12.18;;
22144;SDS011;11238;48.730;11.566;2024-03-08T01:42:02;22.35;;;11.48;;
22144;SDS011;11238;48.730;11.566;2024-03-08T01:44:28;30.50;;;12.32;;
22144;SDS011;11238;48.730;11.566;2024-03-08T01:46:54;24.58;;;12.20;;
22144;SDS011;11238;48.730;11.566;2024-03-08T01:49:20;29.65;;;13.52;;
22144;SDS011;11238;48.730;11.566;2024-03-08T01:51:50;28.23;;;13.05;;
22144;SDS011;11238;48.730;11.566;2024-03-08T01:54:17;24.55;;;12.20;;
22144;SDS011;11238;48.730;11.566;2024-03-08T01:56:45;24.27;;;12.07;;
22144;SDS011;11238;48.730;11.566;2024-03-08T01:59:11;26.15;;;13.23;;
22144;SDS011;11238;48.730;11.566;2024-03-08T02:01:39;27.95;;;13.48;;
22144;SDS011;11238;48.730;11.566;2024-03-08T02:04:06;23.83;;;12.18;;
22144;SDS011;11238;48.730;11.566;2024-03-08T02:06:32;24.17;;;12.05;;
22144;SDS011;11238;48.730;11.566;2024-03-08T02:08:58;23.30;;;12.10;;
22144;SDS011;11238;48.730;11.566;2024-03-08T02:11:24;29.48;;;13.02;;
22144;SDS011;11238;48.730;11.566;2024-03-08T02:13:51;24.48;;;12.63;;
22144;SDS011;11238;48.730;11.566;2024-03-08T02:16:20;25.52;;;12.25;;
22144;SDS011;11238;48.730;11.566;2024-03-08T02:18:47;24.88;;;12.38;;
22144;SDS011;11238;48.730;11.566;2024-03-08T02:21:13;31.45;;;11.93;;
22144;SDS011;11238;48.730;11.566;2024-03-08T02:23:43;24.95;;;12.13;;
22144;SDS011;11238;48.730;11.566;2024-03-08T02:26:09;26.23;;;12.85;;
22144;SDS011;11238;48.730;11.566;2024-03-08T02:28:35;25.58;;;12.65;;
22144;SDS011;11238;48.730;11.566;2024-03-08T02:31:01;26.20;;;12.38;;
22144;SDS011;11238;48.730;11.566;2024-03-08T02:33:28;27.52;;;12.35;;
22144;SDS011;11238;48.730;11.566;2024-03-08T02:35:58;26.73;;;13.23;;
22144;SDS011;11238;48.730;11.566;2024-03-08T02:38:24;25.70;;;12.75;;
22144;SDS011;11238;48.730;11.566;2024-03-08T02:40:50;24.63;;;11.98;;
22144;SDS011;11238;48.730;11.566;2024-03-08T02:43:17;27.65;;;13.23;;
22144;SDS011;11238;48.730;11.566;2024-03-08T02:45:43;27.15;;;13.00;;
22144;SDS011;11238;48.730;11.566;2024-03-08T02:48:10;24.80;;;12.55;;
22144;SDS011;11238;48.730;11.566;2024-03-08T02:50:36;22.98;;;12.02;;
22144;SDS011;11238;48.730;11.566;2024-03-08T02:53:03;24.98;;;12.23;;
22144;SDS011;11238;48.730;11.566;2024-03-08T02:55:29;28.30;;;12.82;;
22144;SDS011;11238;48.730;11.566;2024-03-08T02:57:56;23.63;;;12.43;;
22144;SDS011;11238;48.730;11.566;2024-03-08T03:00:22;27.33;;;12.38;;
22144;SDS011;11238;48.730;11.566;2024-03-08T03:02:49;27.42;;;12.38;;
22144;SDS011;11238;48.730;11.566;2024-03-08T03:05:22;25.95;;;11.77;;
22144;SDS011;11238;48.730;11.566;2024-03-08T03:07:52;27.48;;;12.63;;
22144;SDS011;11238;48.730;11.566;2024-03-08T03:10:18;27.67;;;12.40;;
22144;SDS011;11238;48.730;11.566;2024-03-08T03:12:45;24.67;;;11.68;;
22144;SDS011;11238;48.730;11.566;2024-03-08T03:15:11;22.23;;;11.82;;
22144;SDS011;11238;48.730;11.566;2024-03-08T03:17:38;28.10;;;12.00;;
22144;SDS011;11238;48.730;11.566;2024-03-08T03:20:08;24.65;;;12.07;;
22144;SDS011;11238;48.730;11.566;2024-03-08T03:25:07;22.50;;;10.60;;
22144;SDS011;11238;48.730;11.566;2024-03-08T03:27:35;25.20;;;12.52;;
22144;SDS011;11238;48.730;11.566;2024-03-08T03:30:01;23.05;;;12.02;;
22144;SDS011;11238;48.730;11.566;2024-03-08T03:32:46;28.60;;;12.40;;
22144;SDS011;11238;48.730;11.566;2024-03-08T03:35:16;24.88;;;12.25;;
22144;SDS011;11238;48.730;11.566;2024-03-08T03:37:46;24.75;;;12.15;;
22144;SDS011;11238;48.730;11.566;2024-03-08T03:40:29;29.17;;;11.77;;
22144;SDS011;11238;48.730;11.566;2024-03-08T03:42:55;29.30;;;11.88;;
22144;SDS011;11238;48.730;11.566;2024-03-08T03:45:22;27.08;;;12.50;;
22144;SDS011;11238;48.730;11.566;2024-03-08T03:47:51;25.42;;;12.77;;
22144;SDS011;11238;48.730;11.566;2024-03-08T03:50:20;27.33;;;12.38;;
22144;SDS011;11238;48.730;11.566;2024-03-08T03:52:47;24.92;;;12.52;;
22144;SDS011;11238;48.730;11.566;2024-03-08T03:55:14;25.63;;;12.68;;
22144;SDS011;11238;48.730;11.566;2024-03-08T03:57:40;27.48;;;12.85;;
22144;SDS011;11238;48.730;11.566;2024-03-08T04:00:06;24.85;;;12.45;;
22144;SDS011;11238;48.730;11.566;2024-03-08T04:02:40;24.35;;;12.73;;
22144;SDS011;11238;48.730;11.566;2024-03-08T04:05:09;26.10;;;12.68;;
22144;SDS011;11238;48.730;11.566;2024-03-08T04:07:36;29.50;;;13.15;;
22144;SDS011;11238;48.730;11.566;2024-03-08T04:10:03;30.85;;;13.38;;
22144;SDS011;11238;48.730;11.566;2024-03-08T04:12:31;29.50;;;12.90;;
22144;SDS011;11238;48.730;11.566;2024-03-08T04:14:58;24.88;;;12.77;;
22144;SDS011;11238;48.730;11.566;2024-03-08T04:17:23;27.45;;;12.25;;
22144;SDS011;11238;48.730;11.566;2024-03-08T04:19:50;26.75;;;12.85;;
22144;SDS011;11238;48.730;11.566;2024-03-08T04:22:16;27.27;;;13.25;;
22144;SDS011;11238;48.730;11.566;2024-03-08T04:24:43;30.38;;;12.95;;
22144;SDS011;11238;48.730;11.566;2024-03-08T04:27:09;28.02;;;12.68;;
22144;SDS011;11238;48.730;11.566;2024-03-08T04:29:35;24.90;;;11.55;;
22144;SDS011;11238;48.730;11.566;2024-03-08T04:32:02;26.02;;;12.43;;
22144;SDS011;11238;48.730;11.566;2024-03-08T04:34:29;22.92;;;11.68;;
22144;SDS011;11238;48.730;11.566;2024-03-08T04:36:59;27.48;;;13.25;;
22144;SDS011;11238;48.730;11.566;2024-03-08T04:39:25;26.70;;;12.57;;
22144;SDS011;11238;48.730;11.566;2024-03-08T04:41:53;29.58;;;12.77;;
22144;SDS011;11238;48.730;11.566;2024-03-08T04:44:22;25.02;;;11.93;;
22144;SDS011;11238;48.730;11.566;2024-03-08T04:46:50;26.00;;;12.50;;
22144;SDS011;11238;48.730;11.566;2024-03-08T04:49:15;23.02;;;12.05;;
22144;SDS011;11238;48.730;11.566;2024-03-08T04:51:42;26.05;;;12.30;;
22144;SDS011;11238;48.730;11.566;2024-03-08T04:54:08;26.00;;;13.15;;
22144;SDS011;11238;48.730;11.566;2024-03-08T04:56:34;27.38;;;12.93;;
22144;SDS011;11238;48.730;11.566;2024-03-08T04:59:00;25.40;;;12.68;;
22144;SDS011;11238;48.730;11.566;2024-03-08T05:01:26;28.45;;;13.02;;
22144;SDS011;11238;48.730;11.566;2024-03-08T05:03:52;29.13;;;13.98;;
22144;SDS011;11238;48.730;11.566;2024-03-08T05:06:21;32.05;;;13.82;;
22144;SDS011;11238;48.730;11.566;2024-03-08T05:08:46;28.15;;;12.75;;
22144;SDS011;11238;48.730;11.566;2024-03-08T05:11:13;27.10;;;13.68;;
22144;SDS011;11238;48.730;11.566;2024-03-08T05:13:40;38.75;;;14.52;;
22144;SDS011;11238;48.730;11.566;2024-03-08T05:16:06;31.92;;;14.05;;
22144;SDS011;11238;48.730;11.566;2024-03-08T05:18:33;28.38;;;13.70;;
22144;SDS011;11238;48.730;11.566;2024-03-08T05:21:01;32.47;;;14.50;;
22144;SDS011;11238;48.730;11.566;2024-03-08T05:23:29;32.17;;;14.50;;
22144;SDS011;11238;48.730;11.566;2024-03-08T05:25:56;28.98;;;14.43;;
22144;SDS011;11238;48.730;11.566;2024-03-08T05:28:22;32.03;;;14.75;;
22144;SDS011;11238;48.730;11.566;2024-03-08T05:30:48;29.80;;;14.30;;
22144;SDS011;11238;48.730;11.566;2024-03-08T05:33:14;29.83;;;14.77;;
22144;SDS011;11238;48.730;11.566;2024-03-08T05:35:40;31.42;;;13.55;;
22144;SDS011;11238;48.730;11.566;2024-03-08T05:38:06;28.42;;;13.98;;
22144;SDS011;11238;48.730;11.566;2024-03-08T05:40:33;29.70;;;13.57;;
22144;SDS011;11238;48.730;11.566;2024-03-08T05:42:59;29.33;;;14.65;;
22144;SDS011;11238;48.730;11.566;2024-03-08T05:45:25;27.88;;;13.93;;
22144;SDS011;11238;48.730;11.566;2024-03-08T05:47:51;30.63;;;14.82;;
22144;SDS011;11238;48.730;11.566;2024-03-08T05:50:17;29.75;;;13.85;;
22144;SDS011;11238;48.730;11.566;2024-03-08T05:52:45;28.42;;;14.07;;
22144;SDS011;11238;48.730;11.566;2024-03-08T05:55:10;36.40;;;15.00;;
22144;SDS011;11238;48.730;11.566;2024-03-08T05:57:39;28.45;;;14.00;;
22144;SDS011;11238;48.730;11.566;2024-03-08T06:00:06;31.00;;;14.68;;
22144;SDS011;11238;48.730;11.566;2024-03-08T06:02:38;35.13;;;14.52;;
22144;SDS011;11238;48.730;11.566;2024-03-08T06:05:08;28.95;;;13.65;;
22144;SDS011;11238;48.730;11.566;2024-03-08T06:07:37;32.20;;;14.35;;
22144;SDS011;11238;48.730;11.566;2024-03-08T06:10:09;29.75;;;13.63;;
22144;SDS011;11238;48.730;11.566;2024-03-08T06:12:36;29.20;;;14.27;;
22144;SDS011;11238;48.730;11.566;2024-03-08T06:15:08;29.95;;;14.85;;
22144;SDS011;11238;48.730;11.566;2024-03-08T06:17:35;29.15;;;13.73;;
22144;SDS011;11238;48.730;11.566;2024-03-08T06:20:02;29.42;;;14.57;;
22144;SDS011;11238;48.730;11.566;2024-03-08T06:22:29;27.60;;;14.05;;
22144;SDS011;11238;48.730;11.566;2024-03-08T06:24:56;31.15;;;14.00;;
22144;SDS011;11238;48.730;11.566;2024-03-08T06:27:21;31.10;;;14.20;;
22144;SDS011;11238;48.730;11.566;2024-03-08T06:29:47;31.63;;;13.95;;
22144;SDS011;11238;48.730;11.566;2024-03-08T06:32:14;32.67;;;14.00;;
22144;SDS011;11238;48.730;11.566;2024-03-08T06:34:41;32.55;;;14.38;;
22144;SDS011;11238;48.730;11.566;2024-03-08T06:37:06;31.73;;;14.50;;
22144;SDS011;11238;48.730;11.566;2024-03-08T06:39:33;29.60;;;13.90;;
22144;SDS011;11238;48.730;11.566;2024-03-08T06:42:00;33.67;;;14.70;;
22144;SDS011;11238;48.730;11.566;2024-03-08T06:44:27;32.35;;;13.63;;
22144;SDS011;11238;48.730;11.566;2024-03-08T06:46:53;31.65;;;14.20;;
22144;SDS011;11238;48.730;11.566;2024-03-08T06:49:19;32.10;;;14.07;;
22144;SDS011;11238;48.730;11.566;2024-03-08T06:51:44;28.50;;;14.20;;
22144;SDS011;11238;48.730;11.566;2024-03-08T06:54:10;34.72;;;14.75;;
22144;SDS011;11238;48.730;11.566;2024-03-08T06:56:36;31.10;;;13.38;;
22144;SDS011;11238;48.730;11.566;2024-03-08T06:59:02;34.47;;;14.75;;
22144;SDS011;11238;48.730;11.566;2024-03-08T07:01:28;30.98;;;14.40;;
22144;SDS011;11238;48.730;11.566;2024-03-08T07:03:57;33.28;;;15.07;;
22144;SDS011;11238;48.730;11.566;2024-03-08T07:06:23;34.67;;;14.65;;
22144;SDS011;11238;48.730;11.566;2024-03-08T07:08:49;35.17;;;14.68;;
22144;SDS011;11238;48.730;11.566;2024-03-08T07:11:15;29.05;;;14.32;;
22144;SDS011;11238;48.730;11.566;2024-03-08T07:13:46;35.47;;;14.73;;
22144;SDS011;11238;48.730;11.566;2024-03-08T07:16:13;32.10;;;14.82;;
22144;SDS011;11238;48.730;11.566;2024-03-08T07:18:39;31.90;;;14.57;;
22144;SDS011;11238;48.730;11.566;2024-03-08T07:21:11;35.25;;;15.70;;
22144;SDS011;11238;48.730;11.566;2024-03-08T07:23:37;38.85;;;15.10;;
22144;SDS011;11238;48.730;11.566;2024-03-08T07:26:21;35.47;;;15.10;;
22144;SDS011;11238;48.730;11.566;2024-03-08T07:28:48;34.67;;;15.60;;
22144;SDS011;11238;48.730;11.566;2024-03-08T07:31:14;33.58;;;15.60;;
22144;SDS011;11238;48.730;11.566;2024-03-08T07:33:40;35.42;;;15.90;;
22144;SDS011;11238;48.730;11.566;2024-03-08T07:36:06;32.40;;;16.25;;
22144;SDS011;11238;48.730;11.566;2024-03-08T07:38:32;37.72;;;17.08;;
22144;SDS011;11238;48.730;11.566;2024-03-08T07:40:58;38.47;;;16.08;;
22144;SDS011;11238;48.730;11.566;2024-03-08T07:43:24;41.67;;;17.67;;
22144;SDS011;11238;48.730;11.566;2024-03-08T07:45:50;39.53;;;18.40;;
22144;SDS011;11238;48.730;11.566;2024-03-08T07:48:18;43.67;;;19.27;;
22144;SDS011;11238;48.730;11.566;2024-03-08T07:50:46;45.90;;;18.48;;
22144;SDS011;11238;48.730;11.566;2024-03-08T07:53:11;48.83;;;20.38;;
22144;SDS011;11238;48.730;11.566;2024-03-08T07:55:37;42.55;;;20.10;;
22144;SDS011;11238;48.730;11.566;2024-03-08T07:58:07;45.40;;;18.98;;
22144;SDS011;11238;48.730;11.566;2024-03-08T08:00:36;42.00;;;19.20;;
22144;SDS011;11238;48.730;11.566;2024-03-08T08:03:02;50.55;;;20.15;;
22144;SDS011;11238;48.730;11.566;2024-03-08T08:05:28;47.95;;;19.77;;
22144;SDS011;11238;48.730;11.566;2024-03-08T08:07:55;47.72;;;19.75;;
22144;SDS011;11238;48.730;11.566;2024-03-08T08:10:21;45.33;;;19.95;;
22144;SDS011;11238;48.730;11.566;2024-03-08T08:12:47;41.42;;;19.58;;
22144;SDS011;11238;48.730;11.566;2024-03-08T08:15:14;39.58;;;19.08;;
22144;SDS011;11238;48.730;11.566;2024-03-08T08:17:41;46.30;;;20.23;;
22144;SDS011;11238;48.730;11.566;2024-03-08T08:20:10;43.63;;;19.20;;
22144;SDS011;11238;48.730;11.566;2024-03-08T08:22:41;44.90;;;19.58;;
22144;SDS011;11238;48.730;11.566;2024-03-08T08:25:10;40.65;;;19.23;;
22144;SDS011;11238;48.730;11.566;2024-03-08T08:27:41;41.33;;;18.95;;
22144;SDS011;11238;48.730;11.566;2024-03-08T08:30:10;44.63;;;18.52;;
22144;SDS011;11238;48.730;11.566;2024-03-08T08:32:37;41.67;;;19.73;;
22144;SDS011;11238;48.730;11.566;2024-03-08T08:35:14;45.28;;;18.75;;
22144;SDS011;11238;48.730;11.566;2024-03-08T08:37:40;42.17;;;19.63;;
22144;SDS011;11238;48.730;11.566;2024-03-08T08:40:06;44.67;;;19.92;;
22144;SDS011;11238;48.730;11.566;2024-03-08T08:42:40;45.10;;;19.58;;
22144;SDS011;11238;48.730;11.566;2024-03-08T08:45:06;41.90;;;19.17;;
22144;SDS011;11238;48.730;11.566;2024-03-08T08:47:35;41.92;;;19.30;;
22144;SDS011;11238;48.730;11.566;2024-03-08T08:50:02;38.70;;;19.20;;
22144;SDS011;11238;48.730;11.566;2024-03-08T08:52:29;38.47;;;19.27;;
22144;SDS011;11238;48.730;11.566;2024-03-08T08:55:00;44.88;;;19.35;;
22144;SDS011;11238;48.730;11.566;2024-03-08T08:57:26;39.03;;;18.63;;
22144;SDS011;11238;48.730;11.566;2024-03-08T08:59:53;37.15;;;18.55;;
22144;SDS011;11238;48.730;11.566;2024-03-08T09:02:18;41.33;;;19.17;;
22144;SDS011;11238;48.730;11.566;2024-03-08T09:04:46;37.05;;;17.55;;
22144;SDS011;11238;48.730;11.566;2024-03-08T09:07:13;37.17;;;17.80;;
22144;SDS011;11238;48.730;11.566;2024-03-08T09:09:39;37.33;;;17.98;;
22144;SDS011;11238;48.730;11.566;2024-03-08T09:12:07;37.83;;;17.90;;
22144;SDS011;11238;48.730;11.566;2024-03-08T09:14:33;35.28;;;17.10;;
22144;SDS011;11238;48.730;11.566;2024-03-08T09:17:00;35.13;;;17.38;;
22144;SDS011;11238;48.730;11.566;2024-03-08T09:19:25;35.60;;;15.98;;
22144;SDS011;11238;48.730;11.566;2024-03-08T09:21:51;36.88;;;16.73;;
22144;SDS011;11238;48.730;11.566;2024-03-08T09:24:17;36.05;;;17.20;;
22144;SDS011;11238;48.730;11.566;2024-03-08T09:26:43;32.58;;;16.25;;
22144;SDS011;11238;48.730;11.566;2024-03-08T09:29:09;36.95;;;16.95;;
22144;SDS011;11238;48.730;11.566;2024-03-08T09:31:36;31.95;;;15.48;;
22144;SDS011;11238;48.730;11.566;2024-03-08T09:34:03;37.00;;;16.52;;
22144;SDS011;11238;48.730;11.566;2024-03-08T09:36:29;33.83;;;16.20;;
22144;SDS011;11238;48.730;11.566;2024-03-08T09:38:55;33.15;;;15.55;;
22144;SDS011;11238;48.730;11.566;2024-03-08T09:41:21;26.38;;;14.20;;
22144;SDS011;11238;48.730;11.566;2024-03-08T09:43:47;29.27;;;14.90;;
22144;SDS011;11238;48.730;11.566;2024-03-08T09:46:13;30.38;;;13.60;;
22144;SDS011;11238;48.730;11.566;2024-03-08T09:48:40;31.83;;;14.95;;
22144;SDS011;11238;48.730;11.566;2024-03-08T09:51:07;29.35;;;14.50;;
22144;SDS011;11238;48.730;11.566;2024-03-08T09:53:34;28.17;;;14.27;;
22144;SDS011;11238;48.730;11.566;2024-03-08T09:56:00;31.25;;;15.07;;
22144;SDS011;11238;48.730;11.566;2024-03-08T09:58:28;33.08;;;14.45;;
22144;SDS011;11238;48.730;11.566;2024-03-08T10:01:00;28.58;;;14.15;;
22144;SDS011;11238;48.730;11.566;2024-03-08T10:03:32;27.20;;;14.52;;
22144;SDS011;11238;48.730;11.566;2024-03-08T10:05:58;29.20;;;14.82;;
22144;SDS011;11238;48.730;11.566;2024-03-08T10:08:29;29.80;;;15.18;;
22144;SDS011;11238;48.730;11.566;2024-03-08T10:10:55;28.25;;;14.40;;
22144;SDS011;11238;48.730;11.566;2024-03-08T10:13:23;28.00;;;14.70;;
22144;SDS011;11238;48.730;11.566;2024-03-08T10:15:52;25.83;;;13.57;;
22144;SDS011;11238;48.730;11.566;2024-03-08T10:18:19;25.98;;;13.48;;
22144;SDS011;11238;48.730;11.566;2024-03-08T10:20:46;27.08;;;12.95;;
22144;SDS011;11238;48.730;11.566;2024-03-08T10:23:29;27.77;;;14.90;;
22144;SDS011;11238;48.730;11.566;2024-03-08T10:25:55;26.10;;;13.80;;
22144;SDS011;11238;48.730;11.566;2024-03-08T10:28:23;26.77;;;12.82;;
22144;SDS011;11238;48.730;11.566;2024-03-08T10:30:50;24.08;;;13.38;;
22144;SDS011;11238;48.730;11.566;2024-03-08T10:33:15;25.10;;;12.75;;
22144;SDS011;11238;48.730;11.566;2024-03-08T10:35:44;25.02;;;12.85;;
22144;SDS011;11238;48.730;11.566;2024-03-08T10:38:10;20.58;;;11.88;;
22144;SDS011;11238;48.730;11.566;2024-03-08T10:40:40;23.58;;;12.20;;
22144;SDS011;11238;48.730;11.566;2024-03-08T10:43:06;22.20;;;12.07;;
22144;SDS011;11238;48.730;11.566;2024-03-08T10:45:44;22.80;;;12.35;;
22144;SDS011;11238;48.730;11.566;2024-03-08T10:50:47;23.52;;;11.82;;
22144;SDS011;11238;48.730;11.566;2024-03-08T10:53:17;22.80;;;11.85;;
22144;SDS011;11238;48.730;11.566;2024-03-08T10:55:43;21.60;;;12.55;;
22144;SDS011;11238;48.730;11.566;2024-03-08T10:58:11;22.80;;;12.55;;
22144;SDS011;11238;48.730;11.566;2024-03-08T11:00:37;22.80;;;11.52;;
22144;SDS011;11238;48.730;11.566;2024-03-08T11:03:04;21.48;;;11.80;;
22144;SDS011;11238;48.730;11.566;2024-03-08T11:08:24;23.33;;;12.15;;
22144;SDS011;11238;48.730;11.566;2024-03-08T11:10:50;24.75;;;11.15;;
22144;SDS011;11238;48.730;11.566;2024-03-08T11:16:01;18.70;;;11.27;;
22144;SDS011;11238;48.730;11.566;2024-03-08T11:18:35;22.13;;;11.88;;
22144;SDS011;11238;48.730;11.566;2024-03-08T11:21:12;19.55;;;10.30;;
22144;SDS011;11238;48.730;11.566;2024-03-08T11:23:38;19.35;;;10.60;;
22144;SDS011;11238;48.730;11.566;2024-03-08T11:26:18;21.95;;;11.55;;
22144;SDS011;11238;48.730;11.566;2024-03-08T11:28:46;19.23;;;9.82;;
22144;SDS011;11238;48.730;11.566;2024-03-08T11:33:39;19.33;;;10.73;;
22144;SDS011;11238;48.730;11.566;2024-03-08T11:36:22;18.92;;;10.48;;
22144;SDS011;11238;48.730;11.566;2024-03-08T11:38:49;18.10;;;9.95;;
22144;SDS011;11238;48.730;11.566;2024-03-08T11:41:19;17.13;;;9.93;;
22144;SDS011;11238;48.730;11.566;2024-03-08T11:43:46;18.73;;;9.98;;
22144;SDS011;11238;48.730;11.566;2024-03-08T11:46:12;18.10;;;9.68;;
22144;SDS011;11238;48.730;11.566;2024-03-08T11:48:40;17.48;;;10.30;;
22144;SDS011;11238;48.730;11.566;2024-03-08T11:51:13;17.88;;;10.27;;
22144;SDS011;11238;48.730;11.566;2024-03-08T11:53:40;17.75;;;9.45;;
22144;SDS011;11238;48.730;11.566;2024-03-08T11:56:07;15.23;;;9.55;;
22144;SDS011;11238;48.730;11.566;2024-03-08T11:58:37;18.27;;;10.02;;
22144;SDS011;11238;48.730;11.566;2024-03-08T12:01:06;20.00;;;10.25;;
22144;SDS011;11238;48.730;11.566;2024-03-08T12:03:42;15.75;;;8.48;;
22144;SDS011;11238;48.730;11.566;2024-03-08T12:06:08;14.13;;;8.77;;
22144;SDS011;11238;48.730;11.566;2024-03-08T12:08:40;15.98;;;9.60;;
22144;SDS011;11238;48.730;11.566;2024-03-08T12:11:06;16.45;;;8.68;;
22144;SDS011;11238;48.730;11.566;2024-03-08T12:13:35;20.58;;;10.70;;
22144;SDS011;11238;48.730;11.566;2024-03-08T12:16:02;17.13;;;10.48;;
22144;SDS011;11238;48.730;11.566;2024-03-08T12:18:33;16.77;;;9.45;;
22144;SDS011;11238;48.730;11.566;2024-03-08T12:21:06;20.48;;;10.98;;
22144;SDS011;11238;48.730;11.566;2024-03-08T12:23:33;16.15;;;9.15;;
22144;SDS011;11238;48.730;11.566;2024-03-08T12:26:10;15.13;;;9.18;;
22144;SDS011;11238;48.730;11.566;2024-03-08T12:28:41;13.40;;;8.35;;
22144;SDS011;11238;48.730;11.566;2024-03-08T12:31:11;14.55;;;8.30;;
22144;SDS011;11238;48.730;11.566;2024-03-08T12:33:46;15.57;;;8.65;;
22144;SDS011;11238;48.730;11.566;2024-03-08T12:36:16;13.98;;;8.15;;
22144;SDS011;11238;48.730;11.566;2024-03-08T12:38:46;15.75;;;9.27;;
22144;SDS011;11238;48.730;11.566;2024-03-08T12:41:16;15.48;;;9.23;;
22144;SDS011;11238;48.730;11.566;2024-03-08T12:43:43;17.65;;;8.43;;
22144;SDS011;11238;48.730;11.566;2024-03-08T12:46:14;14.23;;;9.00;;
22144;SDS011;11238;48.730;11.566;2024-03-08T12:48:45;13.60;;;7.75;;
22144;SDS011;11238;48.730;11.566;2024-03-08T12:51:16;13.85;;;8.27;;
22144;SDS011;11238;48.730;11.566;2024-03-08T12:53:43;13.40;;;8.45;;
22144;SDS011;11238;48.730;11.566;2024-03-08T12:56:10;14.65;;;8.10;;
22144;SDS011;11238;48.730;11.566;2024-03-08T12:58:37;13.48;;;8.27;;
22144;SDS011;11238;48.730;11.566;2024-03-08T13:01:06;15.30;;;7.72;;
22144;SDS011;11238;48.730;11.566;2024-03-08T13:03:33;16.48;;;8.07;;
22144;SDS011;11238;48.730;11.566;2024-03-08T13:06:05;13.23;;;8.07;;
22144;SDS011;11238;48.730;11.566;2024-03-08T13:08:37;13.55;;;8.38;;
22144;SDS011;11238;48.730;11.566;2024-03-08T13:11:06;13.10;;;8.07;;
22144;SDS011;11238;48.730;11.566;2024-03-08T13:13:33;12.40;;;7.70;;
22144;SDS011;11238;48.730;11.566;2024-03-08T13:16:02;13.57;;;7.75;;
22144;SDS011;11238;48.730;11.566;2024-03-08T13:18:28;14.43;;;8.18;;
22144;SDS011;11238;48.730;11.566;2024-03-08T13:20:54;14.27;;;8.00;;
22144;SDS011;11238;48.730;11.566;2024-03-08T13:23:20;13.27;;;7.50;;
22144;SDS011;11238;48.730;11.566;2024-03-08T13:25:46;12.52;;;8.02;;
22144;SDS011;11238;48.730;11.566;2024-03-08T13:28:13;13.48;;;7.78;;
22144;SDS011;11238;48.730;11.566;2024-03-08T13:30:39;13.35;;;8.48;;
22144;SDS011;11238;48.730;11.566;2024-03-08T13:33:04;12.63;;;7.93;;
22144;SDS011;11238;48.730;11.566;2024-03-08T13:35:32;14.98;;;7.88;;
22144;SDS011;11238;48.730;11.566;2024-03-08T13:37:58;16.27;;;7.57;;
22144;SDS011;11238;48.730;11.566;2024-03-08T13:40:24;11.30;;;7.10;;
22144;SDS011;11238;48.730;11.566;2024-03-08T13:42:50;15.38;;;8.40;;
22144;SDS011;11238;48.730;11.566;2024-03-08T13:45:17;12.52;;;7.75;;
22144;SDS011;11238;48.730;11.566;2024-03-08T13:47:48;11.80;;;7.07;;
22144;SDS011;11238;48.730;11.566;2024-03-08T13:50:16;11.68;;;7.28;;
22144;SDS011;11238;48.730;11.566;2024-03-08T13:52:47;14.73;;;8.30;;
22144;SDS011;11238;48.730;11.566;2024-03-08T13:55:19;13.73;;;8.15;;
22144;SDS011;11238;48.730;11.566;2024-03-08T13:57:52;14.23;;;8.15;;
22144;SDS011;11238;48.730;11.566;2024-03-08T14:00:18;12.82;;;7.22;;
22144;SDS011;11238;48.730;11.566;2024-03-08T14:02:48;11.50;;;7.22;;
22144;SDS011;11238;48.730;11.566;2024-03-08T14:05:14;11.50;;;7.28;;
22144;SDS011;11238;48.730;11.566;2024-03-08T14:07:41;12.30;;;6.65;;
22144;SDS011;11238;48.730;11.566;2024-03-08T14:10:07;12.95;;;7.70;;
22144;SDS011;11238;48.730;11.566;2024-03-08T14:12:34;12.43;;;7.63;;
22144;SDS011;11238;48.730;11.566;2024-03-08T14:15:01;11.27;;;7.40;;
22144;SDS011;11238;48.730;11.566;2024-03-08T14:17:28;10.77;;;6.80;;
22144;SDS011;11238;48.730;11.566;2024-03-08T14:19:56;14.65;;;9.32;;
22144;SDS011;11238;48.730;11.566;2024-03-08T14:22:22;11.80;;;7.68;;
22144;SDS011;11238;48.730;11.566;2024-03-08T14:24:48;12.65;;;6.82;;
22144;SDS011;11238;48.730;11.566;2024-03-08T14:27:15;11.63;;;7.20;;